BBC London — V2FJ2 — position and weather

sailwx.info

Track history (hours):
 
Tides and Currents Weather Stations Pressure Air Temp Water Temp Dewpoint Dewpoint Depression Visibility Wind Speed Wind Dir Waves Ship Positions

BBC London

Last reported at 2017-Dec-14 15:00 UTC. Time now 2017-Dec-18 03:18 UTC.
Position N 37°52' E 025°47'.

Length 130 m; draft 5.5 m.

Type: Ship. MMSI: 305690000.

Date/timePositionNaut miles runAvg speedWind from/ knotsBaromVisibWave heightAir tempDewpointWater temp
2017-Dec-14 15:00N 37°52' E 025°47'2111.3
2017-Dec-14 13:08N 37°30' E 025°47'211.0
2017-Dec-14 12:59N 37°29' E 025°48'510.9
2017-Dec-14 12:30N 37°25' E 025°52'611.2
2017-Dec-14 12:00N 37°20' E 025°55'511.0
2017-Dec-14 11:30N 37°15' E 025°59'611.0
2017-Dec-14 11:00N 37°10' E 026°02'510.9
2017-Dec-14 10:30N 37°06' E 026°06'510.9
2017-Dec-14 10:00N 37°01' E 026°09'611.0
2017-Dec-14 09:26N 36°56' E 026°14'511.0
2017-Dec-14 09:00N 36°52' E 026°18'611.1
2017-Dec-14 08:30N 36°48' E 026°23'611.3
2017-Dec-14 08:00N 36°44' E 026°27'510.7
2017-Dec-14 07:30N 36°40' E 026°32'610.5
2017-Dec-14 06:58N 36°36' E 026°36'511.3
2017-Dec-14 06:30N 36°32' E 026°41'1810.7
2017-Dec-14 04:48N 36°18' E 026°55'169 9.5
2017-Dec-13 11:05N 35°49' E 030°21'111.6
2017-Dec-13 11:00N 35°49' E 030°22'  
2017-Dec-10 17:17N 36°27' E 026°45'410.7
2017-Dec-10 16:54N 36°31' E 026°41'410.4
2017-Dec-10 16:31N 36°34' E 026°38'510.5
2017-Dec-10 15:59N 36°38' E 026°33'510.7
2017-Dec-10 15:30N 36°42' E 026°29'510.8
2017-Dec-10 15:01N 36°46' E 026°25'611.3
2017-Dec-10 14:30N 36°50' E 026°20'611.3
2017-Dec-10 14:00N 36°54' E 026°16'510.6
2017-Dec-10 13:31N 36°59' E 026°12'510.7
2017-Dec-10 13:00N 37°03' E 026°08'510.5
2017-Dec-10 12:30N 37°08' E 026°05'510.1
2017-Dec-10 12:01N 37°12' E 026°01'510.4
2017-Dec-10 11:30N 37°16' E 025°58'510.5
2017-Dec-10 11:00N 37°21' E 025°54'510.2
2017-Dec-10 10:30N 37°25' E 025°50'510.1
2017-Dec-10 10:00N 37°29' E 025°47'10 9.3
2017-Dec-10 08:53N 37°40' E 025°47'4 9.0
2017-Dec-10 08:29N 37°43' E 025°47'4 9.2
2017-Dec-10 08:00N 37°48' E 025°47'  
2017-Dec-07 00:16N 38°13' E 025°09'1012.4
2017-Dec-06 23:28N 38°08' E 024°58'2412.1
2017-Dec-06 21:29N 37°54' E 024°33'  
Track history (hours):
 
Tides and Currents Weather Stations Pressure Air Temp Water Temp Dewpoint Dewpoint Depression Visibility Wind Speed Wind Dir Waves Ship Positions

BBC London

Last reported at 2017-Dec-14 15:00 UTC. Time now 2017-Dec-18 03:18 UTC.
Position N 37°52' E 025°47'.

Length 130 m; draft 5.5 m.

Type: Ship. MMSI: 305690000.

Date/timePositionNaut miles runAvg speedWind from/ knotsBaromVisibWave heightAir tempDewpointWater temp
2017-Dec-14 15:00N 37°52' E 025°47'2111.3
2017-Dec-14 13:08N 37°30' E 025°47'211.0
2017-Dec-14 12:59N 37°29' E 025°48'510.9
2017-Dec-14 12:30N 37°25' E 025°52'611.2
2017-Dec-14 12:00N 37°20' E 025°55'511.0
2017-Dec-14 11:30N 37°15' E 025°59'611.0
2017-Dec-14 11:00N 37°10' E 026°02'510.9
2017-Dec-14 10:30N 37°06' E 026°06'510.9
2017-Dec-14 10:00N 37°01' E 026°09'611.0
2017-Dec-14 09:26N 36°56' E 026°14'511.0
2017-Dec-14 09:00N 36°52' E 026°18'611.1
2017-Dec-14 08:30N 36°48' E 026°23'611.3
2017-Dec-14 08:00N 36°44' E 026°27'510.7
2017-Dec-14 07:30N 36°40' E 026°32'610.5
2017-Dec-14 06:58N 36°36' E 026°36'511.3
2017-Dec-14 06:30N 36°32' E 026°41'1810.7
2017-Dec-14 04:48N 36°18' E 026°55'169 9.5
2017-Dec-13 11:05N 35°49' E 030°21'111.6
2017-Dec-13 11:00N 35°49' E 030°22'  
2017-Dec-10 17:17N 36°27' E 026°45'410.7
2017-Dec-10 16:54N 36°31' E 026°41'410.4
2017-Dec-10 16:31N 36°34' E 026°38'510.5
2017-Dec-10 15:59N 36°38' E 026°33'510.7
2017-Dec-10 15:30N 36°42' E 026°29'510.8
2017-Dec-10 15:01N 36°46' E 026°25'611.3
2017-Dec-10 14:30N 36°50' E 026°20'611.3
2017-Dec-10 14:00N 36°54' E 026°16'510.6
2017-Dec-10 13:31N 36°59' E 026°12'510.7
2017-Dec-10 13:00N 37°03' E 026°08'510.5
2017-Dec-10 12:30N 37°08' E 026°05'510.1
2017-Dec-10 12:01N 37°12' E 026°01'510.4
2017-Dec-10 11:30N 37°16' E 025°58'510.5
2017-Dec-10 11:00N 37°21' E 025°54'510.2
2017-Dec-10 10:30N 37°25' E 025°50'510.1
2017-Dec-10 10:00N 37°29' E 025°47'10 9.3
2017-Dec-10 08:53N 37°40' E 025°47'4 9.0
2017-Dec-10 08:29N 37°43' E 025°47'4 9.2
2017-Dec-10 08:00N 37°48' E 025°47'  
2017-Dec-07 00:16N 38°13' E 025°09'1012.4
2017-Dec-06 23:28N 38°08' E 024°58'2412.1
2017-Dec-06 21:29N 37°54' E 024°33'  

Dump ship's entire track history